createdAt,value
2018-05-04T00:00:19.590Z,57.68
2018-05-04T00:02:51.857Z,56.50
2018-05-04T00:05:21.618Z,56.44
2018-05-04T00:07:49.669Z,56.64
2018-05-04T00:10:19.384Z,56.27
2018-05-04T00:12:48.445Z,57.58
2018-05-04T00:15:16.155Z,57.50
2018-05-04T00:17:46.301Z,56.82
2018-05-04T00:20:14.306Z,57.77
2018-05-04T00:22:41.874Z,58.34
2018-05-04T00:25:13.560Z,57.33
2018-05-04T00:27:41.358Z,56.87
2018-05-04T00:30:08.913Z,57.98
2018-05-04T00:32:37.305Z,58.98
2018-05-04T00:35:05.245Z,59.60
2018-05-04T00:37:33.550Z,62.02
2018-05-04T00:40:01.347Z,61.79
2018-05-04T00:42:30.140Z,62.10
2018-05-04T00:44:58.491Z,62.46
2018-05-04T00:47:26.103Z,63.65
2018-05-04T00:49:53.940Z,64.05
2018-05-04T00:52:21.483Z,64.49
2018-05-04T00:54:49.566Z,64.78
2018-05-04T00:57:17.357Z,64.54
2018-05-04T00:59:47.249Z,65.89
2018-05-04T01:02:15.021Z,67.32
2018-05-04T01:04:43.701Z,65.97
2018-05-04T01:07:12.093Z,65.86
2018-05-04T01:09:40.154Z,66.87
2018-05-04T01:12:08.451Z,68.56
2018-05-04T01:14:36.004Z,69.48
2018-05-04T01:17:03.663Z,69.88
2018-05-04T01:19:32.028Z,70.02
2018-05-04T01:21:59.605Z,67.33
2018-05-04T01:24:27.252Z,67.94
2018-05-04T01:26:54.858Z,68.18
2018-05-04T01:29:22.475Z,67.93
2018-05-04T01:31:50.031Z,69.39
2018-05-04T01:34:17.589Z,68.21
2018-05-04T01:36:45.123Z,68.38
2018-05-04T01:39:12.677Z,68.10
2018-05-04T01:41:40.204Z,68.38
2018-05-04T01:44:07.758Z,68.83
2018-05-04T01:46:35.387Z,67.75
2018-05-04T01:49:02.935Z,68.89
2018-05-04T01:51:30.462Z,68.93
2018-05-04T01:53:58.014Z,69.69
2018-05-04T01:56:25.546Z,69.46
2018-05-04T01:58:53.096Z,69.73
2018-05-04T02:01:20.649Z,69.88
2018-05-04T02:03:48.200Z,69.57
2018-05-04T02:06:15.752Z,68.94
2018-05-04T02:08:44.354Z,73.60
2018-05-04T02:11:11.930Z,72.93
2018-05-04T02:13:39.567Z,74.29
2018-05-04T02:16:07.089Z,73.47
2018-05-04T02:18:34.693Z,74.31
2018-05-04T02:21:02.667Z,73.16
2018-05-04T02:23:30.220Z,74.95
2018-05-04T02:25:57.774Z,76.66
2018-05-04T02:28:25.474Z,72.18
2018-05-04T02:30:53.055Z,71.11
2018-05-04T02:33:20.895Z,71.57
2018-05-04T02:35:48.532Z,72.44
2018-05-04T02:38:16.188Z,73.36
2018-05-04T02:40:44.579Z,72.67
2018-05-04T02:43:12.109Z,72.56
2018-05-04T02:45:39.662Z,71.88
2018-05-04T02:48:07.198Z,72.92
2018-05-04T02:50:34.742Z,72.97
2018-05-04T02:53:02.275Z,72.64
2018-05-04T02:55:29.845Z,73.57
2018-05-04T02:57:58.065Z,73.86
2018-05-04T03:00:27.061Z,73.42
2018-05-04T03:02:56.797Z,74.34
2018-05-04T03:05:24.403Z,74.65
2018-05-04T03:07:51.935Z,75.00
2018-05-04T03:10:19.561Z,76.41
2018-05-04T03:12:47.089Z,76.65
2018-05-04T03:15:14.640Z,75.96
2018-05-04T03:17:42.195Z,77.69
2018-05-04T03:20:09.741Z,75.95
2018-05-04T03:22:37.271Z,75.45
2018-05-04T03:25:04.941Z,74.46
2018-05-04T03:27:32.455Z,75.62
2018-05-04T03:30:00.058Z,74.54
2018-05-04T03:32:27.581Z,74.68
2018-05-04T03:34:55.133Z,75.32
2018-05-04T03:37:22.666Z,76.46
2018-05-04T03:39:50.217Z,76.22
2018-05-04T03:42:17.857Z,74.66
2018-05-04T03:44:46.265Z,75.22
2018-05-04T03:47:14.819Z,74.88
2018-05-04T03:49:42.396Z,75.24
2018-05-04T03:52:09.931Z,76.24
2018-05-04T03:54:37.501Z,76.68
2018-05-04T03:57:17.051Z,76.38
2018-05-04T03:59:56.682Z,76.70
2018-05-04T04:02:36.228Z,77.26
2018-05-04T04:05:03.805Z,77.66
2018-05-04T04:07:31.316Z,77.72
2018-05-04T04:09:58.862Z,77.52
2018-05-04T04:12:26.394Z,76.91
2018-05-04T04:14:54.022Z,77.25
2018-05-04T04:17:21.582Z,76.98
2018-05-04T04:19:49.125Z,77.19
2018-05-04T04:22:16.699Z,77.59
2018-05-04T04:24:44.904Z,77.70
2018-05-04T04:27:12.461Z,77.04
2018-05-04T04:29:40.196Z,77.39
2018-05-04T04:32:07.738Z,76.75
2018-05-04T04:34:35.266Z,75.87
2018-05-04T04:37:02.866Z,77.17
2018-05-04T04:39:30.544Z,77.69
2018-05-04T04:42:00.689Z,78.93
2018-05-04T04:44:28.523Z,78.51
2018-05-04T04:46:56.075Z,78.59
2018-05-04T04:49:23.601Z,78.35
2018-05-04T04:51:51.207Z,78.12
2018-05-04T04:54:18.727Z,77.87
2018-05-04T04:56:46.321Z,77.77
2018-05-04T04:59:13.833Z,76.33
2018-05-04T05:01:41.441Z,75.01
2018-05-04T05:04:09.012Z,75.60
2018-05-04T05:06:36.770Z,76.39
2018-05-04T05:09:04.369Z,74.97
2018-05-04T05:11:31.954Z,75.43
2018-05-04T05:13:59.547Z,75.50
2018-05-04T05:16:27.105Z,77.22
2018-05-04T05:18:54.630Z,77.90
2018-05-04T05:21:22.185Z,78.03
2018-05-04T05:23:49.732Z,77.97
2018-05-04T05:26:17.284Z,76.75
2018-05-04T05:28:44.888Z,75.63
2018-05-04T05:31:12.741Z,74.91
2018-05-04T05:33:40.297Z,73.70
2018-05-04T05:36:07.901Z,74.62
2018-05-04T05:38:35.552Z,74.39
2018-05-04T05:41:06.118Z,75.18
2018-05-04T05:43:33.754Z,73.55
2018-05-04T05:46:01.304Z,73.07
2018-05-04T05:48:28.863Z,72.35
2018-05-04T05:50:56.524Z,73.18
2018-05-04T05:53:24.062Z,72.26
2018-05-04T05:55:51.757Z,72.00
2018-05-04T05:58:20.374Z,72.01
2018-05-04T06:00:47.892Z,72.03
2018-05-04T06:03:15.521Z,70.07
2018-05-04T06:05:43.222Z,67.95
2018-05-04T06:08:10.878Z,66.18
2018-05-04T06:10:38.425Z,64.31
2018-05-04T06:13:05.978Z,62.43
2018-05-04T06:15:33.553Z,62.09
2018-05-04T06:18:02.161Z,61.20
2018-05-04T06:20:29.696Z,61.48
2018-05-04T06:22:57.243Z,61.33
2018-05-04T06:25:24.761Z,61.67
2018-05-04T06:27:52.321Z,62.23
2018-05-04T06:30:19.917Z,61.50
2018-05-04T06:32:48.415Z,59.86
2018-05-04T06:35:15.975Z,60.12
2018-05-04T06:37:43.530Z,58.02
2018-05-04T06:40:11.053Z,57.58
2018-05-04T06:42:38.656Z,57.61
2018-05-04T06:45:06.214Z,56.95
2018-05-04T06:47:33.758Z,57.03
2018-05-04T06:50:01.290Z,56.07
2018-05-04T06:52:28.893Z,55.86
2018-05-04T06:54:56.416Z,55.76
2018-05-04T06:57:23.970Z,55.27
2018-05-04T06:59:51.507Z,54.76
2018-05-04T07:02:19.781Z,54.52
2018-05-04T07:04:48.049Z,53.96
2018-05-04T07:07:15.594Z,53.82
2018-05-04T07:09:43.141Z,53.92
2018-05-04T07:12:10.732Z,54.34
2018-05-04T07:14:38.283Z,52.65
2018-05-04T07:17:05.888Z,52.59
2018-05-04T07:19:33.413Z,52.52
2018-05-04T07:22:01.022Z,52.92
2018-05-04T07:24:28.601Z,52.17
2018-05-04T07:26:56.197Z,52.30
2018-05-04T07:29:23.823Z,51.94
2018-05-04T07:31:51.395Z,51.38
2018-05-04T07:34:19.938Z,51.34
2018-05-04T07:36:47.455Z,51.62
2018-05-04T07:39:15.012Z,52.70
2018-05-04T07:41:42.626Z,51.46
2018-05-04T07:44:10.212Z,51.47
2018-05-04T07:46:37.763Z,51.38
2018-05-04T07:49:05.308Z,51.08
2018-05-04T07:51:32.819Z,50.99
2018-05-04T07:54:00.405Z,51.53
2018-05-04T07:56:36.823Z,51.00
2018-05-04T07:59:04.450Z,50.77
2018-05-04T08:01:32.030Z,50.73
2018-05-04T08:03:59.611Z,51.42
2018-05-04T08:06:27.129Z,50.67
2018-05-04T08:08:54.708Z,50.47
2018-05-04T08:11:22.237Z,50.71
2018-05-04T08:13:50.113Z,50.55
2018-05-04T08:16:17.640Z,50.70
2018-05-04T08:18:45.254Z,50.00
2018-05-04T08:21:12.813Z,50.57
2018-05-04T08:23:40.374Z,50.03
2018-05-04T08:26:07.893Z,49.74
2018-05-04T08:28:35.458Z,50.12
2018-05-04T08:31:03.004Z,50.66
2018-05-04T08:33:30.555Z,50.19
2018-05-04T08:35:58.113Z,49.68
2018-05-04T08:38:25.732Z,49.08
2018-05-04T08:40:53.432Z,49.64
2018-05-04T08:43:20.866Z,49.47
2018-05-04T08:45:48.417Z,49.54
2018-05-04T08:48:16.180Z,48.68
2018-05-04T08:50:43.617Z,48.56
2018-05-04T08:53:11.173Z,48.54
2018-05-04T08:55:38.700Z,49.23
2018-05-04T08:58:06.278Z,49.56
2018-05-04T09:00:33.805Z,48.48
2018-05-04T09:03:01.355Z,49.15
2018-05-04T09:05:29.057Z,48.67
2018-05-04T09:07:56.487Z,48.96
2018-05-04T09:10:24.039Z,48.10
2018-05-04T09:12:51.860Z,48.27
2018-05-04T09:15:19.441Z,48.43
2018-05-04T09:17:46.992Z,48.68
2018-05-04T09:20:14.563Z,48.89
2018-05-04T09:22:42.101Z,48.36
2018-05-04T09:25:09.653Z,48.89
2018-05-04T09:27:37.227Z,48.17
2018-05-04T09:30:04.785Z,48.67
2018-05-04T09:32:32.310Z,48.57
2018-05-04T09:34:59.861Z,49.57
2018-05-04T09:37:27.466Z,48.78
2018-05-04T09:39:55.044Z,46.96
2018-05-04T09:42:22.585Z,47.49
2018-05-04T09:44:50.149Z,46.99
2018-05-04T09:47:17.705Z,47.62
2018-05-04T09:49:45.375Z,48.04
2018-05-04T09:52:12.902Z,47.63
2018-05-04T09:54:40.486Z,47.52
2018-05-04T09:57:08.045Z,47.93
2018-05-04T09:59:35.607Z,48.04
2018-05-04T10:02:03.150Z,47.06
2018-05-04T10:04:30.738Z,47.70
2018-05-04T10:07:00.568Z,47.87
2018-05-04T10:09:31.051Z,46.75
2018-05-04T10:11:58.799Z,46.78
2018-05-04T10:14:26.348Z,47.12
2018-05-04T10:16:55.909Z,46.98
2018-05-04T10:19:26.206Z,47.22
2018-05-04T10:21:53.914Z,46.75
2018-05-04T10:24:24.375Z,46.34
2018-05-04T10:26:52.383Z,46.77
2018-05-04T10:29:19.937Z,46.92
2018-05-04T10:31:50.371Z,46.92
2018-05-04T10:34:21.382Z,46.65
2018-05-04T10:36:49.433Z,46.01
2018-05-04T10:39:20.878Z,47.55
2018-05-04T10:41:49.923Z,46.87
2018-05-04T10:44:17.686Z,46.65
2018-05-04T10:46:47.139Z,47.08
2018-05-04T10:49:15.376Z,46.07
2018-05-04T10:51:45.431Z,46.41
2018-05-04T10:54:15.732Z,46.34
2018-05-04T10:56:43.263Z,46.05
2018-05-04T10:59:10.834Z,45.55
2018-05-04T11:01:38.368Z,46.35
2018-05-04T11:04:05.912Z,45.26
2018-05-04T11:06:33.505Z,45.98
2018-05-04T11:09:01.070Z,45.84
2018-05-04T11:11:28.625Z,46.15
2018-05-04T11:13:56.153Z,45.02
2018-05-04T11:16:23.730Z,46.84
2018-05-04T11:18:51.757Z,45.75
2018-05-04T11:21:19.561Z,46.09
2018-05-04T11:23:47.143Z,44.91
2018-05-04T11:26:14.689Z,45.52
2018-05-04T11:28:42.216Z,45.78
2018-05-04T11:31:09.769Z,44.99
2018-05-04T11:33:37.299Z,44.66
2018-05-04T11:36:04.871Z,44.95
2018-05-04T11:38:32.495Z,45.22
2018-05-04T11:41:02.625Z,44.02
2018-05-04T11:43:30.158Z,44.37
2018-05-04T11:45:57.732Z,44.11
2018-05-04T11:48:25.659Z,44.26
2018-05-04T11:50:53.238Z,44.00
2018-05-04T11:53:20.788Z,44.92
2018-05-04T11:55:48.337Z,44.10
2018-05-04T11:58:18.212Z,44.70
2018-05-04T12:00:48.651Z,43.57
2018-05-04T12:03:16.746Z,43.18
2018-05-04T12:05:48.273Z,44.39
2018-05-04T12:08:16.655Z,42.88
2018-05-04T12:10:46.805Z,43.91
2018-05-04T12:13:15.357Z,43.05
2018-05-04T12:15:43.103Z,43.35
2018-05-04T12:18:10.641Z,43.84
2018-05-04T12:20:38.189Z,43.94
2018-05-04T12:23:05.716Z,43.29
2018-05-04T12:25:36.923Z,43.69
2018-05-04T12:28:04.732Z,43.91
2018-05-04T12:30:34.114Z,42.91
2018-05-04T12:33:02.882Z,43.20
2018-05-04T12:35:30.823Z,42.45
2018-05-04T12:37:58.879Z,42.97
2018-05-04T12:40:27.393Z,44.52
2018-05-04T12:42:55.183Z,42.85
2018-05-04T12:45:23.062Z,41.70
2018-05-04T12:47:51.505Z,43.09
2018-05-04T12:50:19.374Z,41.89
2018-05-04T12:52:46.970Z,42.72
2018-05-04T12:55:18.216Z,42.55
2018-05-04T12:57:46.246Z,42.54
2018-05-04T13:00:15.095Z,42.21
2018-05-04T13:02:45.946Z,41.46
2018-05-04T13:05:13.629Z,41.68
2018-05-04T13:07:41.154Z,41.62
2018-05-04T13:10:09.908Z,41.52
2018-05-04T13:12:40.910Z,41.93
2018-05-04T13:15:09.015Z,41.25
2018-05-04T13:17:36.869Z,41.23
2018-05-04T13:20:05.064Z,42.27
2018-05-04T13:22:33.683Z,41.51
2018-05-04T13:25:01.400Z,42.28
2018-05-04T13:27:29.018Z,40.76
2018-05-04T13:29:57.233Z,41.40
2018-05-04T13:32:24.806Z,41.87
2018-05-04T13:34:52.339Z,41.85
2018-05-04T13:37:19.882Z,40.69
2018-05-04T13:39:47.456Z,40.75
2018-05-04T13:42:15.015Z,41.34
2018-05-04T13:44:42.594Z,41.19
2018-05-04T13:47:10.142Z,40.75
2018-05-04T13:49:37.670Z,40.90
2018-05-04T13:52:05.225Z,40.76
2018-05-04T13:54:32.751Z,40.33
2018-05-04T13:57:00.374Z,41.46
2018-05-04T13:59:27.926Z,40.04
2018-05-04T14:01:55.529Z,40.02
2018-05-04T14:04:23.159Z,39.84
2018-05-04T14:06:50.761Z,39.54
2018-05-04T14:09:18.285Z,39.59
2018-05-04T14:11:45.839Z,39.82
2018-05-04T14:14:13.367Z,40.39
2018-05-04T14:16:40.946Z,39.49
2018-05-04T14:19:08.519Z,39.79
2018-05-04T14:21:36.144Z,39.64
2018-05-04T14:24:03.675Z,40.40
2018-05-04T14:26:31.290Z,39.27
2018-05-04T14:28:58.830Z,38.86
2018-05-04T14:31:27.409Z,38.88
2018-05-04T14:33:54.935Z,38.36
2018-05-04T14:36:22.553Z,38.44
2018-05-04T14:38:50.113Z,37.98
2018-05-04T14:41:17.691Z,37.60
2018-05-04T14:43:45.219Z,38.08
2018-05-04T14:46:12.765Z,39.72
2018-05-04T14:48:40.351Z,38.51
2018-05-04T14:51:07.872Z,37.59
2018-05-04T14:53:35.452Z,38.27
2018-05-04T14:56:02.982Z,38.34
2018-05-04T14:58:30.536Z,36.77
2018-05-04T15:00:58.118Z,37.28
2018-05-04T15:03:25.716Z,37.20
2018-05-04T15:05:53.266Z,37.54
2018-05-04T15:08:20.842Z,38.05
2018-05-04T15:10:48.419Z,37.42
2018-05-04T15:13:15.998Z,37.51
2018-05-04T15:15:43.511Z,36.51
2018-05-04T15:18:11.176Z,37.91
2018-05-04T15:20:38.831Z,37.14
2018-05-04T15:23:06.400Z,36.89
2018-05-04T15:25:33.932Z,36.95
2018-05-04T15:28:01.509Z,36.96
2018-05-04T15:30:29.068Z,36.51
2018-05-04T15:32:56.643Z,35.75
2018-05-04T15:35:24.293Z,35.56
2018-05-04T15:37:51.848Z,36.25
2018-05-04T15:40:19.366Z,35.14
2018-05-04T15:42:46.927Z,36.05
2018-05-04T15:45:14.473Z,35.31
2018-05-04T15:47:42.098Z,35.20
2018-05-04T15:53:09.474Z,34.50
2018-05-04T15:55:37.023Z,34.59
2018-05-04T15:58:04.591Z,35.64
2018-05-04T16:00:32.140Z,34.65
2018-05-04T16:03:00.290Z,34.27
2018-05-04T16:05:27.847Z,33.99
2018-05-04T16:07:55.433Z,33.26
2018-05-04T16:10:22.958Z,33.57
2018-05-04T16:12:50.552Z,33.72
2018-05-04T16:15:18.118Z,34.58
2018-05-04T16:17:45.681Z,33.02
2018-05-04T16:20:13.206Z,33.17
2018-05-04T16:22:40.758Z,33.01
2018-05-04T16:25:08.313Z,33.62
2018-05-04T16:27:35.910Z,32.78
2018-05-04T16:30:03.485Z,32.80
2018-05-04T16:32:31.312Z,32.50
2018-05-04T16:34:58.798Z,32.97
2018-05-04T16:37:26.322Z,32.92
2018-05-04T16:39:53.873Z,33.70
2018-05-04T16:42:21.473Z,33.33
2018-05-04T16:44:49.033Z,32.81
2018-05-04T16:47:22.427Z,33.17
2018-05-04T16:49:50.105Z,33.95
2018-05-04T16:52:17.635Z,33.97
2018-05-04T16:54:45.242Z,34.17
2018-05-04T16:57:12.870Z,34.24
2018-05-04T16:59:40.533Z,33.96
2018-05-04T17:02:08.069Z,34.23
2018-05-04T17:04:35.652Z,29.61
2018-05-04T17:07:03.174Z,27.67
2018-05-04T17:09:30.727Z,27.40
2018-05-04T17:11:58.279Z,27.13
2018-05-04T17:14:25.891Z,27.23
2018-05-04T17:16:53.404Z,26.10
2018-05-04T17:19:20.948Z,26.20
2018-05-04T17:21:48.487Z,26.38
2018-05-04T17:24:16.139Z,27.13
2018-05-04T17:26:43.668Z,26.96
2018-05-04T17:29:11.221Z,26.73
2018-05-04T17:31:38.741Z,26.43
2018-05-04T17:34:06.439Z,27.76
2018-05-04T17:36:33.900Z,27.16
2018-05-04T17:39:01.598Z,26.59
2018-05-04T17:41:29.131Z,28.30
2018-05-04T17:43:56.705Z,27.70
2018-05-04T17:46:24.262Z,28.31
2018-05-04T17:48:51.864Z,28.67
2018-05-04T17:51:19.389Z,28.87
2018-05-04T17:53:46.976Z,28.88
2018-05-04T17:56:14.489Z,28.57
2018-05-04T17:58:42.077Z,29.38
2018-05-04T18:01:09.625Z,29.33
2018-05-04T18:03:37.285Z,29.52
2018-05-04T18:06:05.907Z,30.32
2018-05-04T18:08:33.530Z,30.92
2018-05-04T18:11:01.835Z,31.54
2018-05-04T18:13:29.884Z,32.48
2018-05-04T18:16:02.450Z,33.25
2018-05-04T18:18:31.299Z,34.38
2018-05-04T18:20:58.911Z,35.36
2018-05-04T18:23:26.396Z,36.25
2018-05-04T18:25:53.949Z,36.38
2018-05-04T18:28:21.474Z,36.38
2018-05-04T18:30:49.053Z,37.84
2018-05-04T18:33:16.603Z,38.08
2018-05-04T18:35:44.529Z,37.81
2018-05-04T18:38:12.058Z,38.14
2018-05-04T18:40:39.609Z,38.67
2018-05-04T18:43:07.137Z,38.90
2018-05-04T18:45:34.694Z,38.99
2018-05-04T18:48:02.268Z,39.22
2018-05-04T18:50:29.824Z,39.75
2018-05-04T18:52:57.398Z,40.13
2018-05-04T18:55:25.110Z,40.80
2018-05-04T18:57:52.782Z,41.08
2018-05-04T19:00:20.579Z,41.77
2018-05-04T19:02:53.562Z,42.32
2018-05-04T19:05:21.132Z,43.53
2018-05-04T19:07:48.687Z,44.83
2018-05-04T19:10:18.899Z,45.07
2018-05-04T19:12:46.613Z,46.28
2018-05-04T19:15:14.337Z,45.88
2018-05-04T19:17:41.894Z,45.31
2018-05-04T19:20:09.550Z,46.21
2018-05-04T19:22:37.227Z,48.25
2018-05-04T19:25:05.151Z,49.24
2018-05-04T19:27:32.678Z,47.65
2018-05-04T19:30:00.231Z,47.43
2018-05-04T19:32:27.758Z,48.28
2018-05-04T19:34:55.314Z,50.11
2018-05-04T19:37:22.837Z,51.00
2018-05-04T19:39:50.425Z,50.90
2018-05-04T19:42:17.942Z,49.49
2018-05-04T19:44:45.566Z,52.23
2018-05-04T19:47:13.097Z,51.69
2018-05-04T19:49:40.624Z,53.04
2018-05-04T19:52:09.995Z,52.70
2018-05-04T19:54:39.696Z,54.64
2018-05-04T19:57:11.494Z,53.51
2018-05-04T19:59:42.183Z,53.68
2018-05-04T20:02:13.187Z,54.53
2018-05-04T20:04:43.850Z,55.79
2018-05-04T20:07:14.386Z,55.11
2018-05-04T20:09:42.147Z,57.00
2018-05-04T20:12:09.715Z,56.99
2018-05-04T20:14:37.262Z,58.12
2018-05-04T20:17:04.926Z,57.21
2018-05-04T20:19:33.450Z,56.96
2018-05-04T20:22:01.068Z,57.31
2018-05-04T20:24:28.601Z,57.63
2018-05-04T20:26:56.158Z,57.37
2018-05-04T20:29:23.687Z,57.54
2018-05-04T20:31:51.236Z,55.91
2018-05-04T20:34:18.770Z,55.59
2018-05-04T20:36:46.425Z,55.61
2018-05-04T20:39:13.985Z,55.26
2018-05-04T20:41:41.570Z,56.06
2018-05-04T20:44:09.133Z,56.21
2018-05-04T20:46:36.673Z,55.93
2018-05-04T20:49:04.329Z,55.17
2018-05-04T20:51:31.900Z,54.95
2018-05-04T20:53:59.634Z,56.03
2018-05-04T20:56:27.312Z,54.67
2018-05-04T20:58:54.931Z,51.50
2018-05-04T21:01:22.540Z,49.67
2018-05-04T21:03:50.065Z,49.23
2018-05-04T21:06:17.624Z,48.97
2018-05-04T21:08:45.213Z,48.46
2018-05-04T21:11:12.755Z,48.50
2018-05-04T21:13:40.544Z,48.20
2018-05-04T21:16:08.208Z,47.94
2018-05-04T21:18:35.859Z,48.22
2018-05-04T21:21:07.375Z,48.23
2018-05-04T21:23:38.310Z,48.16
2018-05-04T21:26:09.619Z,48.33
2018-05-04T21:28:40.727Z,48.25
2018-05-04T21:31:12.461Z,48.76
2018-05-04T21:33:46.920Z,48.64
2018-05-04T21:36:19.250Z,48.83
2018-05-04T21:38:51.368Z,49.18
2018-05-04T21:41:20.570Z,48.87
2018-05-04T21:43:51.182Z,49.22
2018-05-04T21:46:22.931Z,49.20
2018-05-04T21:48:54.246Z,49.46
2018-05-04T21:51:25.389Z,49.64
2018-05-04T21:53:59.998Z,49.71
2018-05-04T21:56:31.860Z,50.17
2018-05-04T21:59:00.090Z,50.33
2018-05-04T22:01:27.670Z,50.57
2018-05-04T22:03:57.073Z,50.67
2018-05-04T22:06:27.062Z,51.28
2018-05-04T22:08:54.773Z,51.61
2018-05-04T22:11:23.100Z,51.94
2018-05-04T22:13:52.361Z,52.41
2018-05-04T22:16:21.614Z,52.42
2018-05-04T22:18:51.175Z,53.19
2018-05-04T22:21:21.632Z,53.37
2018-05-04T22:23:50.164Z,53.59
2018-05-04T22:26:19.477Z,53.84
2018-05-04T22:28:48.137Z,54.27
2018-05-04T22:31:18.115Z,54.56
2018-05-04T22:33:46.407Z,54.74
2018-05-04T22:36:15.449Z,55.10
2018-05-04T22:38:44.801Z,54.98
2018-05-04T22:41:13.592Z,55.08
2018-05-04T22:43:42.851Z,56.82
2018-05-04T22:46:12.660Z,56.34
2018-05-04T22:48:41.911Z,57.75
2018-05-04T22:51:11.293Z,57.24
2018-05-04T22:53:40.417Z,57.69
2018-05-04T22:56:10.015Z,58.87
2018-05-04T22:58:39.542Z,58.60
2018-05-04T23:01:08.042Z,59.82
2018-05-04T23:03:37.249Z,58.84
2018-05-04T23:06:07.957Z,59.27
2018-05-04T23:08:38.726Z,58.71
2018-05-04T23:11:06.833Z,57.28
2018-05-04T23:13:36.383Z,57.17
2018-05-04T23:16:06.210Z,56.32
2018-05-04T23:18:35.665Z,56.82
2018-05-04T23:21:06.025Z,56.19
2018-05-04T23:23:33.568Z,56.56
2018-05-04T23:26:02.993Z,56.61
2018-05-04T23:28:30.617Z,56.25
2018-05-04T23:30:58.601Z,56.39
2018-05-04T23:33:26.148Z,56.21
2018-05-04T23:35:53.694Z,56.19
2018-05-04T23:38:21.458Z,57.64
2018-05-04T23:40:49.028Z,59.09
2018-05-04T23:43:16.586Z,59.91
2018-05-04T23:45:44.113Z,62.53
2018-05-04T23:48:11.669Z,62.49
2018-05-04T23:50:39.193Z,63.97
2018-05-04T23:53:06.816Z,62.98
2018-05-04T23:55:34.421Z,61.70
2018-05-04T23:58:02.028Z,61.52
